sensor_id;sensor_type;location;lat;lon;timestamp;P1;durP1;ratioP1;P2;durP2;ratioP2
11962;SDS011;62678;52.130;5.584;2022-09-12T00:00:42;39.85;;;33.50;;
11962;SDS011;62678;52.130;5.584;2022-09-12T00:03:09;41.67;;;35.88;;
11962;SDS011;62678;52.130;5.584;2022-09-12T00:05:39;45.70;;;36.88;;
11962;SDS011;62678;52.130;5.584;2022-09-12T00:08:10;44.75;;;35.40;;
11962;SDS011;62678;52.130;5.584;2022-09-12T00:10:37;43.58;;;35.35;;
11962;SDS011;62678;52.130;5.584;2022-09-12T00:13:04;42.67;;;36.00;;
11962;SDS011;62678;52.130;5.584;2022-09-12T00:15:32;46.05;;;36.58;;
11962;SDS011;62678;52.130;5.584;2022-09-12T00:18:03;43.78;;;35.90;;
11962;SDS011;62678;52.130;5.584;2022-09-12T00:20:30;46.42;;;38.28;;
11962;SDS011;62678;52.130;5.584;2022-09-12T00:22:57;46.03;;;37.75;;
11962;SDS011;62678;52.130;5.584;2022-09-12T00:25:25;47.50;;;38.92;;
11962;SDS011;62678;52.130;5.584;2022-09-12T00:27:54;44.20;;;36.72;;
11962;SDS011;62678;52.130;5.584;2022-09-12T00:30:22;45.75;;;37.10;;
11962;SDS011;62678;52.130;5.584;2022-09-12T00:32:49;46.92;;;37.97;;
11962;SDS011;62678;52.130;5.584;2022-09-12T00:35:18;46.67;;;37.30;;
11962;SDS011;62678;52.130;5.584;2022-09-12T00:37:45;42.35;;;35.97;;
11962;SDS011;62678;52.130;5.584;2022-09-12T00:40:12;44.05;;;36.78;;
11962;SDS011;62678;52.130;5.584;2022-09-12T00:42:40;49.25;;;38.15;;
11962;SDS011;62678;52.130;5.584;2022-09-12T00:45:07;44.97;;;35.92;;
11962;SDS011;62678;52.130;5.584;2022-09-12T00:47:44;45.20;;;35.97;;
11962;SDS011;62678;52.130;5.584;2022-09-12T00:50:11;40.10;;;32.33;;
11962;SDS011;62678;52.130;5.584;2022-09-12T00:52:42;43.67;;;34.38;;
11962;SDS011;62678;52.130;5.584;2022-09-12T00:55:12;43.00;;;34.50;;
11962;SDS011;62678;52.130;5.584;2022-09-12T00:57:44;38.22;;;32.17;;
11962;SDS011;62678;52.130;5.584;2022-09-12T01:00:17;40.30;;;33.20;;
11962;SDS011;62678;52.130;5.584;2022-09-12T01:02:45;38.88;;;31.92;;
11962;SDS011;62678;52.130;5.584;2022-09-12T01:05:17;38.55;;;31.42;;
11962;SDS011;62678;52.130;5.584;2022-09-12T01:07:44;38.65;;;31.67;;
11962;SDS011;62678;52.130;5.584;2022-09-12T01:10:12;43.80;;;35.38;;
11962;SDS011;62678;52.130;5.584;2022-09-12T01:12:39;39.95;;;34.03;;
11962;SDS011;62678;52.130;5.584;2022-09-12T01:15:10;45.30;;;32.17;;
11962;SDS011;62678;52.130;5.584;2022-09-12T01:17:39;40.40;;;33.45;;
11962;SDS011;62678;52.130;5.584;2022-09-12T01:26:43;39.20;;;30.40;;
11962;SDS011;62678;52.130;5.584;2022-09-12T01:29:26;38.47;;;32.55;;
11962;SDS011;62678;52.130;5.584;2022-09-12T01:32:11;43.45;;;32.20;;
11962;SDS011;62678;52.130;5.584;2022-09-12T01:34:47;39.67;;;31.95;;
11962;SDS011;62678;52.130;5.584;2022-09-12T01:37:20;43.55;;;33.78;;
11962;SDS011;62678;52.130;5.584;2022-09-12T01:39:58;41.42;;;32.65;;
11962;SDS011;62678;52.130;5.584;2022-09-12T01:42:30;40.63;;;32.45;;
11962;SDS011;62678;52.130;5.584;2022-09-12T01:45:02;41.30;;;31.83;;
11962;SDS011;62678;52.130;5.584;2022-09-12T01:47:38;38.78;;;32.00;;
11962;SDS011;62678;52.130;5.584;2022-09-12T01:50:07;39.58;;;32.72;;
11962;SDS011;62678;52.130;5.584;2022-09-12T01:52:41;41.83;;;32.92;;
11962;SDS011;62678;52.130;5.584;2022-09-12T01:55:12;41.90;;;32.60;;
11962;SDS011;62678;52.130;5.584;2022-09-12T01:57:43;45.80;;;32.95;;
11962;SDS011;62678;52.130;5.584;2022-09-12T02:00:15;40.80;;;32.50;;
11962;SDS011;62678;52.130;5.584;2022-09-12T02:02:44;38.05;;;31.60;;
11962;SDS011;62678;52.130;5.584;2022-09-12T02:05:18;40.45;;;31.77;;
11962;SDS011;62678;52.130;5.584;2022-09-12T02:07:50;40.92;;;31.55;;
11962;SDS011;62678;52.130;5.584;2022-09-12T02:10:21;39.90;;;31.60;;
11962;SDS011;62678;52.130;5.584;2022-09-12T02:12:51;38.65;;;30.02;;
11962;SDS011;62678;52.130;5.584;2022-09-12T02:15:22;39.58;;;30.55;;
11962;SDS011;62678;52.130;5.584;2022-09-12T02:17:55;41.80;;;32.80;;
11962;SDS011;62678;52.130;5.584;2022-09-12T02:20:24;42.60;;;32.38;;
11962;SDS011;62678;52.130;5.584;2022-09-12T02:22:54;43.67;;;33.03;;
11962;SDS011;62678;52.130;5.584;2022-09-12T02:25:23;44.28;;;32.45;;
11962;SDS011;62678;52.130;5.584;2022-09-12T02:27:53;38.92;;;30.33;;
11962;SDS011;62678;52.130;5.584;2022-09-12T02:30:26;39.90;;;31.65;;
11962;SDS011;62678;52.130;5.584;2022-09-12T02:33:01;44.05;;;33.95;;
11962;SDS011;62678;52.130;5.584;2022-09-12T02:35:37;43.28;;;32.80;;
11962;SDS011;62678;52.130;5.584;2022-09-12T02:38:08;38.22;;;30.90;;
11962;SDS011;62678;52.130;5.584;2022-09-12T02:40:39;39.92;;;30.50;;
11962;SDS011;62678;52.130;5.584;2022-09-12T02:43:07;41.38;;;31.70;;
11962;SDS011;62678;52.130;5.584;2022-09-12T02:45:34;41.78;;;31.52;;
11962;SDS011;62678;52.130;5.584;2022-09-12T02:48:03;43.05;;;33.15;;
11962;SDS011;62678;52.130;5.584;2022-09-12T02:50:34;45.33;;;32.88;;
11962;SDS011;62678;52.130;5.584;2022-09-12T02:53:01;43.97;;;33.08;;
11962;SDS011;62678;52.130;5.584;2022-09-12T02:55:29;44.45;;;32.90;;
11962;SDS011;62678;52.130;5.584;2022-09-12T02:57:58;43.17;;;31.65;;
11962;SDS011;62678;52.130;5.584;2022-09-12T03:00:29;43.88;;;32.25;;
11962;SDS011;62678;52.130;5.584;2022-09-12T03:03:15;42.25;;;31.63;;
11962;SDS011;62678;52.130;5.584;2022-09-12T03:05:52;42.90;;;31.73;;
11962;SDS011;62678;52.130;5.584;2022-09-12T03:08:27;43.70;;;32.03;;
11962;SDS011;62678;52.130;5.584;2022-09-12T03:11:19;44.42;;;33.15;;
11962;SDS011;62678;52.130;5.584;2022-09-12T03:14:06;44.22;;;32.28;;
11962;SDS011;62678;52.130;5.584;2022-09-12T03:16:44;43.38;;;31.55;;
11962;SDS011;62678;52.130;5.584;2022-09-12T03:19:21;41.25;;;31.40;;
11962;SDS011;62678;52.130;5.584;2022-09-12T03:21:53;51.30;;;34.50;;
11962;SDS011;62678;52.130;5.584;2022-09-12T03:24:28;48.92;;;35.05;;
11962;SDS011;62678;52.130;5.584;2022-09-12T03:26:59;52.60;;;35.65;;
11962;SDS011;62678;52.130;5.584;2022-09-12T03:29:34;50.33;;;34.45;;
11962;SDS011;62678;52.130;5.584;2022-09-12T03:32:02;49.50;;;34.28;;
11962;SDS011;62678;52.130;5.584;2022-09-12T03:34:30;55.53;;;36.35;;
11962;SDS011;62678;52.130;5.584;2022-09-12T03:36:57;50.50;;;33.67;;
11962;SDS011;62678;52.130;5.584;2022-09-12T03:39:24;52.33;;;35.03;;
11962;SDS011;62678;52.130;5.584;2022-09-12T03:41:51;50.20;;;34.95;;
11962;SDS011;62678;52.130;5.584;2022-09-12T03:44:18;53.38;;;34.80;;
11962;SDS011;62678;52.130;5.584;2022-09-12T03:46:45;48.17;;;34.20;;
11962;SDS011;62678;52.130;5.584;2022-09-12T03:49:12;47.95;;;32.92;;
11962;SDS011;62678;52.130;5.584;2022-09-12T03:51:40;51.38;;;34.17;;
11962;SDS011;62678;52.130;5.584;2022-09-12T03:54:08;48.78;;;33.63;;
11962;SDS011;62678;52.130;5.584;2022-09-12T03:56:35;46.22;;;32.88;;
11962;SDS011;62678;52.130;5.584;2022-09-12T03:59:03;49.28;;;33.65;;
11962;SDS011;62678;52.130;5.584;2022-09-12T04:01:31;48.05;;;33.78;;
11962;SDS011;62678;52.130;5.584;2022-09-12T04:03:58;53.88;;;35.33;;
11962;SDS011;62678;52.130;5.584;2022-09-12T04:06:25;51.72;;;34.15;;
11962;SDS011;62678;52.130;5.584;2022-09-12T04:08:54;56.17;;;35.80;;
11962;SDS011;62678;52.130;5.584;2022-09-12T04:11:21;56.30;;;35.70;;
11962;SDS011;62678;52.130;5.584;2022-09-12T04:13:48;55.35;;;35.75;;
11962;SDS011;62678;52.130;5.584;2022-09-12T04:16:15;56.78;;;36.53;;
11962;SDS011;62678;52.130;5.584;2022-09-12T04:18:43;54.55;;;35.47;;
11962;SDS011;62678;52.130;5.584;2022-09-12T04:21:11;53.58;;;34.17;;
11962;SDS011;62678;52.130;5.584;2022-09-12T04:23:40;59.88;;;37.65;;
11962;SDS011;62678;52.130;5.584;2022-09-12T04:26:08;55.35;;;35.88;;
11962;SDS011;62678;52.130;5.584;2022-09-12T04:28:36;57.10;;;35.10;;
11962;SDS011;62678;52.130;5.584;2022-09-12T04:31:04;55.28;;;34.97;;
11962;SDS011;62678;52.130;5.584;2022-09-12T04:33:32;53.25;;;34.65;;
11962;SDS011;62678;52.130;5.584;2022-09-12T04:36:02;59.05;;;38.05;;
11962;SDS011;62678;52.130;5.584;2022-09-12T04:38:30;57.10;;;36.17;;
11962;SDS011;62678;52.130;5.584;2022-09-12T04:40:57;57.95;;;37.13;;
11962;SDS011;62678;52.130;5.584;2022-09-12T04:43:25;57.80;;;35.33;;
11962;SDS011;62678;52.130;5.584;2022-09-12T04:45:52;53.28;;;33.63;;
11962;SDS011;62678;52.130;5.584;2022-09-12T04:48:19;54.20;;;35.65;;
11962;SDS011;62678;52.130;5.584;2022-09-12T04:50:46;57.22;;;34.90;;
11962;SDS011;62678;52.130;5.584;2022-09-12T04:53:12;61.35;;;37.08;;
11962;SDS011;62678;52.130;5.584;2022-09-12T04:55:39;58.08;;;36.10;;
11962;SDS011;62678;52.130;5.584;2022-09-12T04:58:06;60.13;;;37.42;;
11962;SDS011;62678;52.130;5.584;2022-09-12T05:00:34;60.67;;;36.75;;
11962;SDS011;62678;52.130;5.584;2022-09-12T05:03:01;65.00;;;38.53;;
11962;SDS011;62678;52.130;5.584;2022-09-12T05:05:27;64.22;;;39.47;;
11962;SDS011;62678;52.130;5.584;2022-09-12T05:07:54;57.85;;;36.70;;
11962;SDS011;62678;52.130;5.584;2022-09-12T05:10:21;61.40;;;37.70;;
11962;SDS011;62678;52.130;5.584;2022-09-12T05:12:48;61.88;;;38.17;;
11962;SDS011;62678;52.130;5.584;2022-09-12T05:15:15;60.80;;;38.83;;
11962;SDS011;62678;52.130;5.584;2022-09-12T05:17:43;63.75;;;37.97;;
11962;SDS011;62678;52.130;5.584;2022-09-12T05:20:10;60.53;;;37.95;;
11962;SDS011;62678;52.130;5.584;2022-09-12T05:22:37;63.38;;;38.47;;
11962;SDS011;62678;52.130;5.584;2022-09-12T05:25:04;63.38;;;38.58;;
11962;SDS011;62678;52.130;5.584;2022-09-12T05:27:32;63.72;;;38.63;;
11962;SDS011;62678;52.130;5.584;2022-09-12T05:29:59;69.18;;;40.63;;
11962;SDS011;62678;52.130;5.584;2022-09-12T05:32:29;67.53;;;41.17;;
11962;SDS011;62678;52.130;5.584;2022-09-12T05:34:57;73.75;;;42.67;;
11962;SDS011;62678;52.130;5.584;2022-09-12T05:37:24;68.90;;;41.50;;
11962;SDS011;62678;52.130;5.584;2022-09-12T05:39:51;68.85;;;43.20;;
11962;SDS011;62678;52.130;5.584;2022-09-12T05:42:18;74.03;;;42.78;;
11962;SDS011;62678;52.130;5.584;2022-09-12T05:44:44;73.25;;;43.90;;
11962;SDS011;62678;52.130;5.584;2022-09-12T05:47:11;72.03;;;42.20;;
11962;SDS011;62678;52.130;5.584;2022-09-12T05:49:38;72.00;;;42.30;;
11962;SDS011;62678;52.130;5.584;2022-09-12T05:52:06;71.63;;;43.15;;
11962;SDS011;62678;52.130;5.584;2022-09-12T05:54:32;75.82;;;44.58;;
11962;SDS011;62678;52.130;5.584;2022-09-12T05:56:59;77.53;;;45.20;;
11962;SDS011;62678;52.130;5.584;2022-09-12T05:59:26;81.00;;;45.33;;
11962;SDS011;62678;52.130;5.584;2022-09-12T06:01:53;86.68;;;47.38;;
11962;SDS011;62678;52.130;5.584;2022-09-12T06:04:19;87.13;;;47.38;;
11962;SDS011;62678;52.130;5.584;2022-09-12T06:06:47;86.30;;;47.83;;
11962;SDS011;62678;52.130;5.584;2022-09-12T06:09:17;89.55;;;50.05;;
11962;SDS011;62678;52.130;5.584;2022-09-12T06:11:44;96.50;;;49.90;;
11962;SDS011;62678;52.130;5.584;2022-09-12T06:14:11;101.63;;;53.70;;
11962;SDS011;62678;52.130;5.584;2022-09-12T06:16:40;103.97;;;52.50;;
11962;SDS011;62678;52.130;5.584;2022-09-12T06:19:10;98.43;;;51.83;;
11962;SDS011;62678;52.130;5.584;2022-09-12T06:21:40;103.63;;;53.00;;
11962;SDS011;62678;52.130;5.584;2022-09-12T06:24:07;103.22;;;52.45;;
11962;SDS011;62678;52.130;5.584;2022-09-12T06:26:35;113.32;;;54.30;;
11962;SDS011;62678;52.130;5.584;2022-09-12T06:29:02;109.40;;;53.13;;
11962;SDS011;62678;52.130;5.584;2022-09-12T06:31:29;108.20;;;55.20;;
11962;SDS011;62678;52.130;5.584;2022-09-12T06:33:58;107.57;;;53.70;;
11962;SDS011;62678;52.130;5.584;2022-09-12T06:36:27;116.32;;;55.67;;
11962;SDS011;62678;52.130;5.584;2022-09-12T06:38:56;113.70;;;56.35;;
11962;SDS011;62678;52.130;5.584;2022-09-12T06:41:24;111.18;;;54.70;;
11962;SDS011;62678;52.130;5.584;2022-09-12T06:43:53;111.35;;;54.33;;
11962;SDS011;62678;52.130;5.584;2022-09-12T06:46:20;106.45;;;53.78;;
11962;SDS011;62678;52.130;5.584;2022-09-12T06:48:48;115.63;;;55.15;;
11962;SDS011;62678;52.130;5.584;2022-09-12T06:51:15;113.90;;;54.95;;
11962;SDS011;62678;52.130;5.584;2022-09-12T06:53:44;116.82;;;56.88;;
11962;SDS011;62678;52.130;5.584;2022-09-12T06:56:16;123.30;;;57.08;;
11962;SDS011;62678;52.130;5.584;2022-09-12T06:58:44;117.00;;;56.70;;
11962;SDS011;62678;52.130;5.584;2022-09-12T07:01:14;116.00;;;56.85;;
11962;SDS011;62678;52.130;5.584;2022-09-12T07:03:42;114.68;;;55.33;;
11962;SDS011;62678;52.130;5.584;2022-09-12T07:06:14;114.00;;;56.47;;
11962;SDS011;62678;52.130;5.584;2022-09-12T07:08:41;115.00;;;54.70;;
11962;SDS011;62678;52.130;5.584;2022-09-12T07:11:09;107.15;;;54.33;;
11962;SDS011;62678;52.130;5.584;2022-09-12T07:13:37;112.07;;;54.50;;
11962;SDS011;62678;52.130;5.584;2022-09-12T07:16:10;105.80;;;54.67;;
11962;SDS011;62678;52.130;5.584;2022-09-12T07:18:39;107.75;;;53.83;;
11962;SDS011;62678;52.130;5.584;2022-09-12T07:21:06;106.88;;;54.67;;
11962;SDS011;62678;52.130;5.584;2022-09-12T07:23:34;100.50;;;52.15;;
11962;SDS011;62678;52.130;5.584;2022-09-12T07:26:02;110.50;;;53.85;;
11962;SDS011;62678;52.130;5.584;2022-09-12T07:28:30;96.72;;;51.03;;
11962;SDS011;62678;52.130;5.584;2022-09-12T07:31:03;98.82;;;51.20;;
11962;SDS011;62678;52.130;5.584;2022-09-12T07:33:31;97.65;;;52.00;;
11962;SDS011;62678;52.130;5.584;2022-09-12T07:36:01;92.53;;;51.15;;
11962;SDS011;62678;52.130;5.584;2022-09-12T07:38:28;90.35;;;49.97;;
11962;SDS011;62678;52.130;5.584;2022-09-12T07:40:56;88.22;;;49.35;;
11962;SDS011;62678;52.130;5.584;2022-09-12T07:43:23;90.45;;;48.47;;
11962;SDS011;62678;52.130;5.584;2022-09-12T07:45:53;81.80;;;48.28;;
11962;SDS011;62678;52.130;5.584;2022-09-12T07:48:20;81.03;;;47.42;;
11962;SDS011;62678;52.130;5.584;2022-09-12T07:50:47;83.07;;;47.17;;
11962;SDS011;62678;52.130;5.584;2022-09-12T07:53:24;77.15;;;44.58;;
11962;SDS011;62678;52.130;5.584;2022-09-12T07:55:54;78.65;;;47.33;;
11962;SDS011;62678;52.130;5.584;2022-09-12T07:58:21;77.03;;;45.78;;
11962;SDS011;62678;52.130;5.584;2022-09-12T08:00:48;73.88;;;43.85;;
11962;SDS011;62678;52.130;5.584;2022-09-12T08:03:15;76.75;;;44.22;;
11962;SDS011;62678;52.130;5.584;2022-09-12T08:05:41;71.28;;;43.63;;
11962;SDS011;62678;52.130;5.584;2022-09-12T08:08:08;64.22;;;40.38;;
11962;SDS011;62678;52.130;5.584;2022-09-12T08:10:36;64.05;;;41.00;;
11962;SDS011;62678;52.130;5.584;2022-09-12T08:13:03;63.50;;;40.58;;
11962;SDS011;62678;52.130;5.584;2022-09-12T08:15:31;64.05;;;39.20;;
11962;SDS011;62678;52.130;5.584;2022-09-12T08:18:00;63.78;;;39.55;;
11962;SDS011;62678;52.130;5.584;2022-09-12T08:20:26;60.33;;;38.60;;
11962;SDS011;62678;52.130;5.584;2022-09-12T08:22:54;63.95;;;39.72;;
11962;SDS011;62678;52.130;5.584;2022-09-12T08:25:21;62.15;;;38.88;;
11962;SDS011;62678;52.130;5.584;2022-09-12T08:27:49;52.60;;;36.53;;
11962;SDS011;62678;52.130;5.584;2022-09-12T08:30:16;53.85;;;36.50;;
11962;SDS011;62678;52.130;5.584;2022-09-12T08:32:43;57.28;;;36.65;;
11962;SDS011;62678;52.130;5.584;2022-09-12T08:35:09;54.67;;;36.15;;
11962;SDS011;62678;52.130;5.584;2022-09-12T08:37:36;47.38;;;33.60;;
11962;SDS011;62678;52.130;5.584;2022-09-12T08:40:03;47.20;;;32.20;;
11962;SDS011;62678;52.130;5.584;2022-09-12T08:42:35;42.92;;;31.20;;
11962;SDS011;62678;52.130;5.584;2022-09-12T08:45:17;44.17;;;31.63;;
11962;SDS011;62678;52.130;5.584;2022-09-12T08:47:46;46.85;;;32.63;;
11962;SDS011;62678;52.130;5.584;2022-09-12T08:50:16;46.63;;;32.28;;
11962;SDS011;62678;52.130;5.584;2022-09-12T08:52:48;45.75;;;31.80;;
11962;SDS011;62678;52.130;5.584;2022-09-12T08:55:22;45.78;;;31.75;;
11962;SDS011;62678;52.130;5.584;2022-09-12T08:57:56;45.63;;;31.88;;
11962;SDS011;62678;52.130;5.584;2022-09-12T09:00:25;46.13;;;30.95;;
11962;SDS011;62678;52.130;5.584;2022-09-12T09:03:08;38.08;;;29.17;;
11962;SDS011;62678;52.130;5.584;2022-09-12T09:06:00;41.60;;;29.08;;
11962;SDS011;62678;52.130;5.584;2022-09-12T09:08:39;40.35;;;29.15;;
11962;SDS011;62678;52.130;5.584;2022-09-12T09:11:24;40.47;;;30.27;;
11962;SDS011;62678;52.130;5.584;2022-09-12T09:17:15;37.45;;;27.33;;
11962;SDS011;62678;52.130;5.584;2022-09-12T09:19:47;37.58;;;28.30;;
11962;SDS011;62678;52.130;5.584;2022-09-12T09:22:17;39.15;;;26.90;;
11962;SDS011;62678;52.130;5.584;2022-09-12T09:25:01;38.00;;;28.42;;
11962;SDS011;62678;52.130;5.584;2022-09-12T09:27:32;36.88;;;27.30;;
11962;SDS011;62678;52.130;5.584;2022-09-12T09:30:02;34.05;;;26.52;;
11962;SDS011;62678;52.130;5.584;2022-09-12T09:32:33;33.42;;;26.10;;
11962;SDS011;62678;52.130;5.584;2022-09-12T09:35:09;34.50;;;26.65;;
11962;SDS011;62678;52.130;5.584;2022-09-12T09:37:40;41.53;;;26.55;;
11962;SDS011;62678;52.130;5.584;2022-09-12T09:40:13;35.25;;;26.88;;
11962;SDS011;62678;52.130;5.584;2022-09-12T09:42:49;36.60;;;26.25;;
11962;SDS011;62678;52.130;5.584;2022-09-12T09:45:22;36.95;;;25.23;;
11962;SDS011;62678;52.130;5.584;2022-09-12T09:47:55;34.25;;;24.05;;
11962;SDS011;62678;52.130;5.584;2022-09-12T09:50:25;31.92;;;23.88;;
11962;SDS011;62678;52.130;5.584;2022-09-12T09:52:53;33.75;;;24.83;;
11962;SDS011;62678;52.130;5.584;2022-09-12T09:55:24;31.50;;;24.48;;
11962;SDS011;62678;52.130;5.584;2022-09-12T09:57:56;39.72;;;26.30;;
11962;SDS011;62678;52.130;5.584;2022-09-12T10:00:26;36.35;;;25.63;;
11962;SDS011;62678;52.130;5.584;2022-09-12T10:02:58;34.28;;;24.98;;
11962;SDS011;62678;52.130;5.584;2022-09-12T10:05:28;38.00;;;25.90;;
11962;SDS011;62678;52.130;5.584;2022-09-12T10:07:55;32.75;;;25.42;;
11962;SDS011;62678;52.130;5.584;2022-09-12T10:10:23;33.45;;;24.10;;
11962;SDS011;62678;52.130;5.584;2022-09-12T10:12:50;31.08;;;23.23;;
11962;SDS011;62678;52.130;5.584;2022-09-12T10:15:32;29.17;;;23.25;;
11962;SDS011;62678;52.130;5.584;2022-09-12T10:18:00;30.20;;;23.63;;
11962;SDS011;62678;52.130;5.584;2022-09-12T10:20:28;30.27;;;23.52;;
11962;SDS011;62678;52.130;5.584;2022-09-12T10:22:57;32.70;;;24.70;;
11962;SDS011;62678;52.130;5.584;2022-09-12T10:25:25;27.38;;;22.08;;
11962;SDS011;62678;52.130;5.584;2022-09-12T10:27:53;31.10;;;21.55;;
11962;SDS011;62678;52.130;5.584;2022-09-12T10:30:22;27.05;;;20.95;;
11962;SDS011;62678;52.130;5.584;2022-09-12T10:32:52;24.02;;;20.60;;
11962;SDS011;62678;52.130;5.584;2022-09-12T10:35:24;28.02;;;20.27;;
11962;SDS011;62678;52.130;5.584;2022-09-12T10:37:55;26.15;;;20.75;;
11962;SDS011;62678;52.130;5.584;2022-09-12T10:40:24;25.75;;;19.92;;
11962;SDS011;62678;52.130;5.584;2022-09-12T10:42:52;24.38;;;20.38;;
11962;SDS011;62678;52.130;5.584;2022-09-12T10:45:25;26.45;;;20.77;;
11962;SDS011;62678;52.130;5.584;2022-09-12T10:47:54;22.92;;;19.02;;
11962;SDS011;62678;52.130;5.584;2022-09-12T10:50:26;18.88;;;15.93;;
11962;SDS011;62678;52.130;5.584;2022-09-12T10:52:57;17.08;;;13.55;;
11962;SDS011;62678;52.130;5.584;2022-09-12T10:55:39;15.30;;;13.27;;
11962;SDS011;62678;52.130;5.584;2022-09-12T10:58:20;14.75;;;12.88;;
11962;SDS011;62678;52.130;5.584;2022-09-12T11:01:02;13.05;;;11.65;;
11962;SDS011;62678;52.130;5.584;2022-09-12T11:03:39;12.80;;;11.20;;
11962;SDS011;62678;52.130;5.584;2022-09-12T11:06:20;14.50;;;10.88;;
11962;SDS011;62678;52.130;5.584;2022-09-12T11:08:58;15.85;;;12.27;;
11962;SDS011;62678;52.130;5.584;2022-09-12T11:11:43;15.25;;;12.93;;
11962;SDS011;62678;52.130;5.584;2022-09-12T11:14:28;15.07;;;13.15;;
11962;SDS011;62678;52.130;5.584;2022-09-12T11:17:06;12.70;;;11.40;;
11962;SDS011;62678;52.130;5.584;2022-09-12T11:19:52;13.27;;;11.93;;
11962;SDS011;62678;52.130;5.584;2022-09-12T11:22:37;12.05;;;10.32;;
11962;SDS011;62678;52.130;5.584;2022-09-12T11:25:25;12.15;;;9.77;;
11962;SDS011;62678;52.130;5.584;2022-09-12T11:27:59;11.27;;;10.05;;
11962;SDS011;62678;52.130;5.584;2022-09-12T11:30:46;13.35;;;9.93;;
11962;SDS011;62678;52.130;5.584;2022-09-12T11:33:28;10.60;;;9.38;;
11962;SDS011;62678;52.130;5.584;2022-09-12T11:36:06;12.80;;;9.52;;
11962;SDS011;62678;52.130;5.584;2022-09-12T11:38:46;11.30;;;9.80;;
11962;SDS011;62678;52.130;5.584;2022-09-12T11:41:18;13.00;;;9.88;;
11962;SDS011;62678;52.130;5.584;2022-09-12T11:43:49;10.52;;;8.07;;
11962;SDS011;62678;52.130;5.584;2022-09-12T11:46:22;10.23;;;7.70;;
11962;SDS011;62678;52.130;5.584;2022-09-12T11:48:56;7.85;;;7.00;;
11962;SDS011;62678;52.130;5.584;2022-09-12T11:51:27;8.20;;;7.28;;
11962;SDS011;62678;52.130;5.584;2022-09-12T11:54:02;7.68;;;6.97;;
11962;SDS011;62678;52.130;5.584;2022-09-12T11:56:39;9.18;;;7.03;;
11962;SDS011;62678;52.130;5.584;2022-09-12T11:59:11;7.03;;;6.32;;
11962;SDS011;62678;52.130;5.584;2022-09-12T12:01:42;9.00;;;6.65;;
11962;SDS011;62678;52.130;5.584;2022-09-12T12:04:14;6.38;;;5.55;;
11962;SDS011;62678;52.130;5.584;2022-09-12T12:06:48;5.95;;;4.55;;
11962;SDS011;62678;52.130;5.584;2022-09-12T12:09:20;6.90;;;4.85;;
11962;SDS011;62678;52.130;5.584;2022-09-12T12:11:47;8.07;;;4.70;;
11962;SDS011;62678;52.130;5.584;2022-09-12T12:14:18;5.00;;;4.50;;
11962;SDS011;62678;52.130;5.584;2022-09-12T12:16:48;5.53;;;4.68;;
11962;SDS011;62678;52.130;5.584;2022-09-12T12:19:23;6.68;;;4.90;;
11962;SDS011;62678;52.130;5.584;2022-09-12T12:22:02;12.52;;;5.68;;
11962;SDS011;62678;52.130;5.584;2022-09-12T12:24:33;7.47;;;5.88;;
11962;SDS011;62678;52.130;5.584;2022-09-12T12:27:01;7.03;;;5.90;;
11962;SDS011;62678;52.130;5.584;2022-09-12T12:29:35;7.28;;;6.53;;
11962;SDS011;62678;52.130;5.584;2022-09-12T12:32:23;9.00;;;5.80;;
11962;SDS011;62678;52.130;5.584;2022-09-12T12:35:00;6.97;;;5.55;;
11962;SDS011;62678;52.130;5.584;2022-09-12T12:37:52;7.00;;;6.30;;
11962;SDS011;62678;52.130;5.584;2022-09-12T12:40:23;7.00;;;6.30;;
11962;SDS011;62678;52.130;5.584;2022-09-12T12:48:43;8.73;;;7.22;;
11962;SDS011;62678;52.130;5.584;2022-09-12T12:51:23;7.05;;;6.10;;
11962;SDS011;62678;52.130;5.584;2022-09-12T12:53:57;7.28;;;6.10;;
11962;SDS011;62678;52.130;5.584;2022-09-12T12:56:34;8.15;;;6.80;;
11962;SDS011;62678;52.130;5.584;2022-09-12T12:59:11;9.85;;;6.38;;
11962;SDS011;62678;52.130;5.584;2022-09-12T13:01:45;8.70;;;6.55;;
11962;SDS011;62678;52.130;5.584;2022-09-12T13:04:15;7.20;;;6.35;;
11962;SDS011;62678;52.130;5.584;2022-09-12T13:06:45;7.40;;;6.70;;
11962;SDS011;62678;52.130;5.584;2022-09-12T13:09:21;7.78;;;5.63;;
11962;SDS011;62678;52.130;5.584;2022-09-12T13:11:56;7.88;;;6.40;;
11962;SDS011;62678;52.130;5.584;2022-09-12T13:14:37;6.82;;;5.78;;
11962;SDS011;62678;52.130;5.584;2022-09-12T13:17:17;6.03;;;4.97;;
11962;SDS011;62678;52.130;5.584;2022-09-12T13:19:51;5.78;;;5.10;;
11962;SDS011;62678;52.130;5.584;2022-09-12T13:22:21;5.18;;;4.68;;
11962;SDS011;62678;52.130;5.584;2022-09-12T13:24:49;8.65;;;6.32;;
11962;SDS011;62678;52.130;5.584;2022-09-12T13:27:19;5.35;;;4.85;;
11962;SDS011;62678;52.130;5.584;2022-09-12T13:29:47;5.65;;;4.75;;
11962;SDS011;62678;52.130;5.584;2022-09-12T13:32:14;4.55;;;4.15;;
11962;SDS011;62678;52.130;5.584;2022-09-12T13:34:48;8.60;;;4.88;;
11962;SDS011;62678;52.130;5.584;2022-09-12T13:37:26;6.05;;;4.18;;
11962;SDS011;62678;52.130;5.584;2022-09-12T13:40:10;9.40;;;4.45;;
11962;SDS011;62678;52.130;5.584;2022-09-12T13:42:49;4.50;;;4.10;;
11962;SDS011;62678;52.130;5.584;2022-09-12T13:45:31;4.47;;;4.07;;
11962;SDS011;62678;52.130;5.584;2022-09-12T13:48:02;5.20;;;4.15;;
11962;SDS011;62678;52.130;5.584;2022-09-12T13:50:32;8.27;;;4.28;;
11962;SDS011;62678;52.130;5.584;2022-09-12T13:53:05;7.78;;;5.13;;
11962;SDS011;62678;52.130;5.584;2022-09-12T13:55:38;6.75;;;5.15;;
11962;SDS011;62678;52.130;5.584;2022-09-12T13:58:14;6.97;;;4.82;;
11962;SDS011;62678;52.130;5.584;2022-09-12T14:00:44;8.07;;;4.57;;
11962;SDS011;62678;52.130;5.584;2022-09-12T14:03:19;5.72;;;5.13;;
11962;SDS011;62678;52.130;5.584;2022-09-12T14:06:09;5.93;;;4.57;;
11962;SDS011;62678;52.130;5.584;2022-09-12T14:08:51;8.48;;;4.57;;
11962;SDS011;62678;52.130;5.584;2022-09-12T14:11:21;9.90;;;4.15;;
11962;SDS011;62678;52.130;5.584;2022-09-12T14:13:52;10.35;;;5.18;;
11962;SDS011;62678;52.130;5.584;2022-09-12T14:16:20;5.70;;;4.30;;
11962;SDS011;62678;52.130;5.584;2022-09-12T14:18:51;5.35;;;3.75;;
11962;SDS011;62678;52.130;5.584;2022-09-12T14:21:23;5.28;;;4.03;;
11962;SDS011;62678;52.130;5.584;2022-09-12T14:23:58;7.05;;;3.60;;
11962;SDS011;62678;52.130;5.584;2022-09-12T14:26:26;5.72;;;3.40;;
11962;SDS011;62678;52.130;5.584;2022-09-12T14:28:59;4.57;;;3.03;;
11962;SDS011;62678;52.130;5.584;2022-09-12T14:31:30;6.68;;;3.17;;
11962;SDS011;62678;52.130;5.584;2022-09-12T14:34:07;3.45;;;3.17;;
11962;SDS011;62678;52.130;5.584;2022-09-12T14:36:38;4.60;;;3.13;;
11962;SDS011;62678;52.130;5.584;2022-09-12T14:39:14;4.43;;;3.15;;
11962;SDS011;62678;52.130;5.584;2022-09-12T14:41:50;4.25;;;2.90;;
11962;SDS011;62678;52.130;5.584;2022-09-12T14:44:27;4.05;;;3.20;;
11962;SDS011;62678;52.130;5.584;2022-09-12T14:46:55;4.38;;;2.92;;
11962;SDS011;62678;52.130;5.584;2022-09-12T14:49:28;5.28;;;3.10;;
11962;SDS011;62678;52.130;5.584;2022-09-12T14:51:58;8.82;;;5.28;;
11962;SDS011;62678;52.130;5.584;2022-09-12T14:54:34;6.57;;;5.93;;
11962;SDS011;62678;52.130;5.584;2022-09-12T14:57:03;6.43;;;3.30;;
11962;SDS011;62678;52.130;5.584;2022-09-12T14:59:37;5.18;;;4.43;;
11962;SDS011;62678;52.130;5.584;2022-09-12T15:02:19;6.78;;;3.88;;
11962;SDS011;62678;52.130;5.584;2022-09-12T15:04:48;3.95;;;3.65;;